Neuquen, Neuquen Presidente Peron International Airport (SAZN)

NameNeuquen Presidente Peron International Airport
CityNeuquen
CountryArgentina
ICAOSAZN
IATANQN
Altitude293 m
CoordinatesGoogle Map
Live Air TrafficLiveATC.net
METARSAZN 251700Z 09007KT 9999 BKN030 22/05 Q1018
2020-04-25 17:00:00 Wind: East (90°) 3.6 m/s - Visibility: > 10000 m - Temperature: 22 °C - Dew point: 5 °C - Humidity: 33.1% - Pressure: 1018 hPa
Statistics

The table below shows the detailed information of all flights to/from Neuquen, Neuquen Presidente Peron International Airport (SAZN).